Knotts Island, North Carolina
Current Conditions -  °F | °C
As of 9:55 PM on Saturday 25 Oct 2014 (Local Time) from KONX Reporting Station
Clear Clear  
Wind Chill: 58°   Ceiling: Unl
Heat Index: 58°   Visibility: 10mi
Dew Point: 46°   Wind: 8mph
Humidity: 62%   Direction: 240°WSW
Pressure: 29.85"   Gusts: NA
Location:  36.51°N, 75.92°W
Report Text: KONX 260155Z AUTO 24007KT 10SM CLR 15/08 A2985 RMK AO2 T01470075
Loading
Personal Weather Stations






























Interactive Weather Map
Tropical Storm Tracking
New forecast layout! Learn more

10-Day Weather Forecast

Advertisements
Track Severe Weather on mobile